Buffalo, WY (82834)

12:47 PM MDT on May 28, 2017 (GMT -0600)
MSPKW4 | | Change Station
Active Advisory: Special Statement

Elev 8016 ft 44.31 °N, 106.98 °W | Updated 12 days ago

Mostly Cloudy
Mostly Cloudy
41.0 °F
Feels Like 38 °F
N
4.0
Wind Variable Wind from East
Gusts 8.0 mph

Today
High -- | Low -- °F
--% Chance of Precip.
Yesterday
High -- | Low -- °F
Precip. -- in
Pressure 30.13 in
Visibility 10.0 miles
Clouds Few 6000 ft
Mostly Cloudy 11000 ft
Windchill 38 °F
Dew Point 40 °F
Humidity 95%
Rainfall in
Snow Depth Not available.
5:27 AM 8:40 PM
Waxing Crescent, 13% visible
METAR KBYG 281753Z AUTO VRB04KT 10SM FEW060 BKN110 18/04 A3024 RMK AO2 PK WND 33036/1655 WSHFT 1711 LTG DSNT S SLP201 T01830044 10189 20094 53004
Pressure 30.13 in
Visibility 10.0 miles
Clouds Few 6000 ft
Mostly Cloudy 11000 ft
Windchill 38 °F
Dew Point 40 °F
Humidity 95%
Rainfall in
Snow Depth Not available.
5:27 AM 8:40 PM
Waxing Crescent, 13% visible
METAR KBYG 281753Z AUTO VRB04KT 10SM FEW060 BKN110 18/04 A3024 RMK AO2 PK WND 33036/1655 WSHFT 1711 LTG DSNT S SLP201 T01830044 10189 20094 53004

Get Your Daily Forecast Email!

Thanks for signing up!

Be on the lookout for a verification email in your inbox.

You'll start receiving severe weather alerts in your inbox..

×

10-Day Weather Forecast

Almanac

Astronomy

May. 28, 2017 Rise Set
Actual Time
Civil Twilight
Nautical Twilight
Astronomical Twilight
Moon
Length of Visible Light
Length of Day
Tomorrow will be .
, % of the Moon is Illuminated

Today's Extremes

State Highs State Lows

Community

WunderPhotos

Category 6

Welcome to Category 6. This is the collective home for Weather Underground's featured writeups by Dr. Jeff Masters (right), Bob Henson (left), Chris Burt, and other regular contributors.

Nearby

Air Quality

  Air Quality AQ Index Pollutant
Not available.

Snow Depth

Station Depth Elevation

Earthquake Activity

City Distance Mag. Time & Date
Minimum magnitude displayed is 2.5.

Coastal Water Temperatures

Place Temperature

Stations

Nearby Weather Stations

Station Location Temp. Windchill Dew Point Humidity Wind Precip. Elev Updated Type
                   

Watches & Warnings

Special Statement
Issued: 12:32 PM MDT May. 28, 2017 – National Weather Service

A few showers and thunderstorms moving south along a cold front
will have the potential to produce gusty outflow winds of 40 to 50
mph along with small hail and of course dangerous lightning
through the afternoon. Be alert and take shelter indoors if a
thunderstorm approaches your area.


Team Riverton